sensor_id;sensor_type;location;lat;lon;timestamp;pressure;altitude;pressure_sealevel;temperature;humidity
10097;BME280;5087;42.662;23.466;2022-09-17T00:01:15;94569.34;;;15.35;100.00
10097;BME280;5087;42.662;23.466;2022-09-17T00:03:43;94581.63;;;15.22;100.00
10097;BME280;5087;42.662;23.466;2022-09-17T00:06:11;94587.06;;;14.75;100.00
10097;BME280;5087;42.662;23.466;2022-09-17T00:08:42;94589.47;;;14.77;100.00
10097;BME280;5087;42.662;23.466;2022-09-17T00:11:11;94588.72;;;14.80;100.00
10097;BME280;5087;42.662;23.466;2022-09-17T00:13:41;94586.06;;;14.64;100.00
10097;BME280;5087;42.662;23.466;2022-09-17T00:16:09;94590.84;;;14.67;100.00
10097;BME280;5087;42.662;23.466;2022-09-17T00:18:38;94569.84;;;14.51;100.00
10097;BME280;5087;42.662;23.466;2022-09-17T00:21:07;94576.81;;;14.49;100.00
10097;BME280;5087;42.662;23.466;2022-09-17T00:23:41;94553.47;;;14.32;100.00
10097;BME280;5087;42.662;23.466;2022-09-17T00:26:08;94567.56;;;14.34;100.00
10097;BME280;5087;42.662;23.466;2022-09-17T00:28:35;94572.88;;;14.27;100.00
10097;BME280;5087;42.662;23.466;2022-09-17T00:31:06;94548.31;;;14.07;100.00
10097;BME280;5087;42.662;23.466;2022-09-17T00:33:33;94541.78;;;13.92;100.00
10097;BME280;5087;42.662;23.466;2022-09-17T00:36:04;94555.94;;;13.98;100.00
10097;BME280;5087;42.662;23.466;2022-09-17T00:38:31;94555.44;;;14.12;100.00
10097;BME280;5087;42.662;23.466;2022-09-17T00:40:59;94548.19;;;14.00;100.00
10097;BME280;5087;42.662;23.466;2022-09-17T00:43:45;94552.06;;;14.18;100.00
10097;BME280;5087;42.662;23.466;2022-09-17T00:46:30;94533.38;;;14.01;100.00
10097;BME280;5087;42.662;23.466;2022-09-17T00:48:59;94558.53;;;14.10;100.00
10097;BME280;5087;42.662;23.466;2022-09-17T00:51:33;94550.63;;;14.05;100.00
10097;BME280;5087;42.662;23.466;2022-09-17T00:54:03;94566.41;;;14.15;100.00
10097;BME280;5087;42.662;23.466;2022-09-17T00:56:34;94565.34;;;14.20;100.00
10097;BME280;5087;42.662;23.466;2022-09-17T00:59:02;94573.59;;;14.23;100.00
10097;BME280;5087;42.662;23.466;2022-09-17T01:01:31;94573.22;;;14.45;100.00
10097;BME280;5087;42.662;23.466;2022-09-17T01:03:58;94585.59;;;14.38;100.00
10097;BME280;5087;42.662;23.466;2022-09-17T01:06:33;94579.50;;;14.25;100.00
10097;BME280;5087;42.662;23.466;2022-09-17T01:09:20;94596.88;;;14.56;100.00
10097;BME280;5087;42.662;23.466;2022-09-17T01:12:04;94574.47;;;14.28;100.00
10097;BME280;5087;42.662;23.466;2022-09-17T01:14:46;94560.25;;;14.18;100.00
10097;BME280;5087;42.662;23.466;2022-09-17T01:17:23;94574.81;;;14.46;100.00
10097;BME280;5087;42.662;23.466;2022-09-17T01:20:13;94557.53;;;14.18;100.00
10097;BME280;5087;42.662;23.466;2022-09-17T01:22:57;94556.94;;;14.09;100.00
10097;BME280;5087;42.662;23.466;2022-09-17T01:25:31;94566.16;;;14.20;100.00
10097;BME280;5087;42.662;23.466;2022-09-17T01:28:23;94559.25;;;14.27;100.00
10097;BME280;5087;42.662;23.466;2022-09-17T01:31:02;94562.03;;;14.30;100.00
10097;BME280;5087;42.662;23.466;2022-09-17T01:33:38;94561.38;;;14.37;100.00
10097;BME280;5087;42.662;23.466;2022-09-17T01:36:25;94558.09;;;14.28;100.00
10097;BME280;5087;42.662;23.466;2022-09-17T01:39:02;94545.47;;;14.19;100.00
10097;BME280;5087;42.662;23.466;2022-09-17T01:41:40;94574.47;;;14.28;100.00
10097;BME280;5087;42.662;23.466;2022-09-17T01:44:14;94570.16;;;14.27;100.00
10097;BME280;5087;42.662;23.466;2022-09-17T01:46:47;94562.53;;;14.16;100.00
10097;BME280;5087;42.662;23.466;2022-09-17T01:49:17;94571.38;;;14.29;100.00
10097;BME280;5087;42.662;23.466;2022-09-17T01:51:47;94535.09;;;14.09;100.00
10097;BME280;5087;42.662;23.466;2022-09-17T01:54:19;94543.31;;;14.29;100.00
10097;BME280;5087;42.662;23.466;2022-09-17T01:56:53;94534.69;;;14.27;100.00
10097;BME280;5087;42.662;23.466;2022-09-17T01:59:25;94499.63;;;14.29;100.00
10097;BME280;5087;42.662;23.466;2022-09-17T02:01:58;94476.91;;;14.24;100.00
10097;BME280;5087;42.662;23.466;2022-09-17T02:04:30;94478.69;;;14.36;100.00
10097;BME280;5087;42.662;23.466;2022-09-17T02:07:02;94504.22;;;14.24;100.00
10097;BME280;5087;42.662;23.466;2022-09-17T02:09:35;94530.72;;;14.24;100.00
10097;BME280;5087;42.662;23.466;2022-09-17T02:12:07;94531.56;;;14.28;100.00
10097;BME280;5087;42.662;23.466;2022-09-17T02:14:39;94497.78;;;14.13;100.00
10097;BME280;5087;42.662;23.466;2022-09-17T02:17:15;94480.53;;;14.09;100.00
10097;BME280;5087;42.662;23.466;2022-09-17T02:19:46;94498.09;;;14.31;100.00
10097;BME280;5087;42.662;23.466;2022-09-17T02:22:21;94472.34;;;14.09;100.00
10097;BME280;5087;42.662;23.466;2022-09-17T02:24:59;94472.59;;;14.23;100.00
10097;BME280;5087;42.662;23.466;2022-09-17T02:27:36;94453.50;;;14.23;100.00
10097;BME280;5087;42.662;23.466;2022-09-17T02:30:08;94420.34;;;14.02;100.00
10097;BME280;5087;42.662;23.466;2022-09-17T02:32:37;94441.59;;;14.12;100.00
10097;BME280;5087;42.662;23.466;2022-09-17T02:35:08;94432.53;;;14.28;100.00
10097;BME280;5087;42.662;23.466;2022-09-17T02:37:37;94410.19;;;14.22;100.00
10097;BME280;5087;42.662;23.466;2022-09-17T02:40:07;94401.63;;;14.23;100.00
10097;BME280;5087;42.662;23.466;2022-09-17T02:42:53;94384.81;;;14.21;100.00
10097;BME280;5087;42.662;23.466;2022-09-17T02:45:32;94404.91;;;14.09;100.00
10097;BME280;5087;42.662;23.466;2022-09-17T02:48:17;94420.78;;;14.04;100.00
10097;BME280;5087;42.662;23.466;2022-09-17T02:51:00;94439.81;;;14.00;100.00
10097;BME280;5087;42.662;23.466;2022-09-17T02:53:36;94435.03;;;13.93;100.00
10097;BME280;5087;42.662;23.466;2022-09-17T02:56:11;94416.81;;;13.78;100.00
10097;BME280;5087;42.662;23.466;2022-09-17T02:58:46;94428.16;;;13.80;100.00
10097;BME280;5087;42.662;23.466;2022-09-17T03:01:22;94420.88;;;13.88;100.00
10097;BME280;5087;42.662;23.466;2022-09-17T03:03:54;94420.00;;;14.03;100.00
10097;BME280;5087;42.662;23.466;2022-09-17T03:06:24;94399.53;;;13.93;100.00
10097;BME280;5087;42.662;23.466;2022-09-17T03:08:52;94415.78;;;14.06;100.00
10097;BME280;5087;42.662;23.466;2022-09-17T03:11:19;94394.72;;;14.06;100.00
10097;BME280;5087;42.662;23.466;2022-09-17T03:13:46;94395.06;;;14.28;100.00
10097;BME280;5087;42.662;23.466;2022-09-17T03:16:14;94428.22;;;14.27;100.00
10097;BME280;5087;42.662;23.466;2022-09-17T03:18:41;94422.31;;;14.24;100.00
10097;BME280;5087;42.662;23.466;2022-09-17T03:21:11;94425.53;;;14.30;100.00
10097;BME280;5087;42.662;23.466;2022-09-17T03:23:38;94395.88;;;14.29;100.00
10097;BME280;5087;42.662;23.466;2022-09-17T03:26:06;94397.25;;;14.42;100.00
10097;BME280;5087;42.662;23.466;2022-09-17T03:28:34;94393.13;;;14.52;100.00
10097;BME280;5087;42.662;23.466;2022-09-17T03:31:01;94367.34;;;14.49;100.00
10097;BME280;5087;42.662;23.466;2022-09-17T03:33:30;94380.44;;;14.90;100.00
10097;BME280;5087;42.662;23.466;2022-09-17T03:35:57;94400.72;;;14.89;100.00
10097;BME280;5087;42.662;23.466;2022-09-17T03:38:27;94375.56;;;14.76;100.00
10097;BME280;5087;42.662;23.466;2022-09-17T03:40:58;94399.41;;;15.06;100.00
10097;BME280;5087;42.662;23.466;2022-09-17T03:43:25;94410.34;;;15.06;100.00
10097;BME280;5087;42.662;23.466;2022-09-17T03:45:53;94359.91;;;16.02;100.00
10097;BME280;5087;42.662;23.466;2022-09-17T03:48:20;94362.03;;;16.72;100.00
10097;BME280;5087;42.662;23.466;2022-09-17T03:50:47;94355.78;;;16.71;100.00
10097;BME280;5087;42.662;23.466;2022-09-17T03:53:16;94345.56;;;16.68;100.00
10097;BME280;5087;42.662;23.466;2022-09-17T03:55:45;94343.31;;;16.81;100.00
10097;BME280;5087;42.662;23.466;2022-09-17T03:58:13;94328.56;;;17.00;100.00
10097;BME280;5087;42.662;23.466;2022-09-17T04:00:43;94288.75;;;16.58;100.00
10097;BME280;5087;42.662;23.466;2022-09-17T04:03:11;94338.00;;;17.10;100.00
10097;BME280;5087;42.662;23.466;2022-09-17T04:05:39;94348.91;;;16.99;100.00
10097;BME280;5087;42.662;23.466;2022-09-17T04:08:06;94374.03;;;17.08;100.00
10097;BME280;5087;42.662;23.466;2022-09-17T04:10:33;94353.13;;;16.86;100.00
10097;BME280;5087;42.662;23.466;2022-09-17T04:13:02;94363.78;;;16.95;100.00
10097;BME280;5087;42.662;23.466;2022-09-17T04:15:29;94379.84;;;16.96;100.00
10097;BME280;5087;42.662;23.466;2022-09-17T04:17:57;94357.44;;;16.35;100.00
10097;BME280;5087;42.662;23.466;2022-09-17T04:20:24;94395.72;;;16.72;100.00
10097;BME280;5087;42.662;23.466;2022-09-17T04:22:52;94387.53;;;16.80;100.00
10097;BME280;5087;42.662;23.466;2022-09-17T04:25:20;94393.97;;;16.50;100.00
10097;BME280;5087;42.662;23.466;2022-09-17T04:27:47;94426.63;;;16.73;100.00
10097;BME280;5087;42.662;23.466;2022-09-17T04:30:17;94447.91;;;16.90;100.00
10097;BME280;5087;42.662;23.466;2022-09-17T04:32:45;94463.00;;;16.66;100.00
10097;BME280;5087;42.662;23.466;2022-09-17T04:35:12;94455.16;;;16.65;100.00
10097;BME280;5087;42.662;23.466;2022-09-17T04:37:40;94469.63;;;16.24;100.00
10097;BME280;5087;42.662;23.466;2022-09-17T04:40:08;94499.03;;;16.27;100.00
10097;BME280;5087;42.662;23.466;2022-09-17T04:42:35;94470.41;;;15.87;100.00
10097;BME280;5087;42.662;23.466;2022-09-17T04:45:03;94506.66;;;16.10;100.00
10097;BME280;5087;42.662;23.466;2022-09-17T04:47:32;94504.03;;;15.87;100.00
10097;BME280;5087;42.662;23.466;2022-09-17T04:49:59;94494.88;;;15.76;100.00
10097;BME280;5087;42.662;23.466;2022-09-17T04:52:26;94503.00;;;15.99;100.00
10097;BME280;5087;42.662;23.466;2022-09-17T04:54:54;94540.75;;;16.17;100.00
10097;BME280;5087;42.662;23.466;2022-09-17T04:57:21;94511.03;;;15.85;100.00
10097;BME280;5087;42.662;23.466;2022-09-17T04:59:50;94540.44;;;15.91;100.00
10097;BME280;5087;42.662;23.466;2022-09-17T05:02:18;94519.84;;;15.71;100.00
10097;BME280;5087;42.662;23.466;2022-09-17T05:04:47;94571.25;;;16.15;100.00
10097;BME280;5087;42.662;23.466;2022-09-17T05:07:15;94546.44;;;16.01;100.00
10097;BME280;5087;42.662;23.466;2022-09-17T05:09:43;94579.97;;;16.24;100.00
10097;BME280;5087;42.662;23.466;2022-09-17T05:12:10;94525.97;;;15.91;100.00
10097;BME280;5087;42.662;23.466;2022-09-17T05:15:04;94571.94;;;16.08;100.00
10097;BME280;5087;42.662;23.466;2022-09-17T05:17:54;94545.72;;;16.07;100.00
10097;BME280;5087;42.662;23.466;2022-09-17T05:20:24;94502.00;;;15.54;100.00
10097;BME280;5087;42.662;23.466;2022-09-17T05:22:54;94550.25;;;15.92;100.00
10097;BME280;5087;42.662;23.466;2022-09-17T05:25:38;94540.03;;;15.89;100.00
10097;BME280;5087;42.662;23.466;2022-09-17T05:28:06;94473.06;;;15.52;100.00
10097;BME280;5087;42.662;23.466;2022-09-17T05:30:33;94512.28;;;15.91;100.00
10097;BME280;5087;42.662;23.466;2022-09-17T05:33:02;94474.75;;;15.61;100.00
10097;BME280;5087;42.662;23.466;2022-09-17T05:35:33;94505.56;;;15.85;100.00
10097;BME280;5087;42.662;23.466;2022-09-17T05:38:04;94442.06;;;15.41;100.00
10097;BME280;5087;42.662;23.466;2022-09-17T05:40:32;94533.56;;;16.05;100.00
10097;BME280;5087;42.662;23.466;2022-09-17T05:43:01;94472.03;;;15.64;100.00
10097;BME280;5087;42.662;23.466;2022-09-17T05:45:30;94477.38;;;15.54;100.00
10097;BME280;5087;42.662;23.466;2022-09-17T05:48:14;94482.16;;;15.60;100.00
10097;BME280;5087;42.662;23.466;2022-09-17T05:50:45;94450.28;;;15.41;100.00
10097;BME280;5087;42.662;23.466;2022-09-17T05:53:14;94513.31;;;15.82;100.00
10097;BME280;5087;42.662;23.466;2022-09-17T05:55:41;94536.06;;;16.17;100.00
10097;BME280;5087;42.662;23.466;2022-09-17T05:58:23;94518.94;;;15.90;100.00
10097;BME280;5087;42.662;23.466;2022-09-17T06:00:52;94529.63;;;16.02;100.00
10097;BME280;5087;42.662;23.466;2022-09-17T06:03:20;94523.59;;;15.89;100.00
10097;BME280;5087;42.662;23.466;2022-09-17T06:05:54;94555.44;;;16.01;100.00
10097;BME280;5087;42.662;23.466;2022-09-17T06:08:26;94514.56;;;15.85;100.00
10097;BME280;5087;42.662;23.466;2022-09-17T06:10:54;94491.53;;;15.59;100.00
10097;BME280;5087;42.662;23.466;2022-09-17T06:13:22;94524.03;;;15.91;100.00
10097;BME280;5087;42.662;23.466;2022-09-17T06:15:50;94473.06;;;15.52;100.00
10097;BME280;5087;42.662;23.466;2022-09-17T06:18:21;94478.00;;;15.70;100.00
10097;BME280;5087;42.662;23.466;2022-09-17T06:21:00;94535.84;;;15.99;100.00
10097;BME280;5087;42.662;23.466;2022-09-17T06:23:31;94536.66;;;16.00;100.00
10097;BME280;5087;42.662;23.466;2022-09-17T06:26:05;94516.63;;;15.65;100.00
10097;BME280;5087;42.662;23.466;2022-09-17T06:28:37;94552.19;;;15.92;100.00
10097;BME280;5087;42.662;23.466;2022-09-17T06:31:11;94616.22;;;16.14;100.00
10097;BME280;5087;42.662;23.466;2022-09-17T06:33:46;94597.88;;;16.18;100.00
10097;BME280;5087;42.662;23.466;2022-09-17T06:36:27;94585.50;;;16.28;100.00
10097;BME280;5087;42.662;23.466;2022-09-17T06:38:58;94506.06;;;15.94;100.00
10097;BME280;5087;42.662;23.466;2022-09-17T06:41:28;94603.88;;;16.27;100.00
10097;BME280;5087;42.662;23.466;2022-09-17T06:44:02;94559.00;;;15.78;100.00
10097;BME280;5087;42.662;23.466;2022-09-17T06:46:31;94603.81;;;16.24;100.00
10097;BME280;5087;42.662;23.466;2022-09-17T06:48:58;94590.41;;;16.15;100.00
10097;BME280;5087;42.662;23.466;2022-09-17T06:51:28;94617.66;;;16.35;100.00
10097;BME280;5087;42.662;23.466;2022-09-17T06:53:57;94514.94;;;15.83;100.00
10097;BME280;5087;42.662;23.466;2022-09-17T06:56:28;94581.66;;;16.36;100.00
10097;BME280;5087;42.662;23.466;2022-09-17T06:59:01;94571.97;;;16.42;100.00
10097;BME280;5087;42.662;23.466;2022-09-17T07:01:52;94602.50;;;16.78;100.00
10097;BME280;5087;42.662;23.466;2022-09-17T07:04:32;94509.66;;;16.36;100.00
10097;BME280;5087;42.662;23.466;2022-09-17T07:07:24;94572.06;;;16.91;100.00
10097;BME280;5087;42.662;23.466;2022-09-17T07:09:52;94485.88;;;16.43;100.00
10097;BME280;5087;42.662;23.466;2022-09-17T07:12:26;94538.28;;;16.80;100.00
10097;BME280;5087;42.662;23.466;2022-09-17T07:15:00;94552.47;;;16.89;100.00
10097;BME280;5087;42.662;23.466;2022-09-17T07:17:34;94538.44;;;16.94;100.00
10097;BME280;5087;42.662;23.466;2022-09-17T07:20:04;94517.72;;;17.00;100.00
10097;BME280;5087;42.662;23.466;2022-09-17T07:22:35;94532.44;;;17.26;100.00
10097;BME280;5087;42.662;23.466;2022-09-17T07:25:05;94488.53;;;17.22;100.00
10097;BME280;5087;42.662;23.466;2022-09-17T07:27:35;94459.66;;;17.47;100.00
10097;BME280;5087;42.662;23.466;2022-09-17T07:30:03;94512.91;;;18.01;100.00
10097;BME280;5087;42.662;23.466;2022-09-17T07:32:31;94488.00;;;17.65;100.00
10097;BME280;5087;42.662;23.466;2022-09-17T07:35:00;94492.56;;;18.13;100.00
10097;BME280;5087;42.662;23.466;2022-09-17T07:37:28;94457.50;;;17.85;100.00
10097;BME280;5087;42.662;23.466;2022-09-17T07:39:58;94448.19;;;18.08;100.00
10097;BME280;5087;42.662;23.466;2022-09-17T07:42:25;94472.22;;;18.36;100.00
10097;BME280;5087;42.662;23.466;2022-09-17T07:44:53;94504.09;;;19.17;100.00
10097;BME280;5087;42.662;23.466;2022-09-17T07:47:25;94473.09;;;19.12;100.00
10097;BME280;5087;42.662;23.466;2022-09-17T07:49:53;94374.47;;;18.42;100.00
10097;BME280;5087;42.662;23.466;2022-09-17T07:52:20;94476.56;;;19.60;100.00
10097;BME280;5087;42.662;23.466;2022-09-17T07:54:48;94405.03;;;19.27;100.00
10097;BME280;5087;42.662;23.466;2022-09-17T07:57:17;94464.31;;;19.75;100.00
10097;BME280;5087;42.662;23.466;2022-09-17T07:59:48;94429.97;;;20.05;100.00
10097;BME280;5087;42.662;23.466;2022-09-17T08:02:15;94446.06;;;20.14;100.00
10097;BME280;5087;42.662;23.466;2022-09-17T08:04:43;94447.94;;;20.32;100.00
10097;BME280;5087;42.662;23.466;2022-09-17T08:07:11;94440.66;;;20.63;100.00
10097;BME280;5087;42.662;23.466;2022-09-17T08:09:39;94449.34;;;20.58;100.00
10097;BME280;5087;42.662;23.466;2022-09-17T08:12:07;94450.81;;;20.14;100.00
10097;BME280;5087;42.662;23.466;2022-09-17T08:14:35;94377.44;;;19.64;100.00
10097;BME280;5087;42.662;23.466;2022-09-17T08:17:05;94433.13;;;20.04;100.00
10097;BME280;5087;42.662;23.466;2022-09-17T08:19:33;94413.09;;;20.00;100.00
10097;BME280;5087;42.662;23.466;2022-09-17T08:22:01;94399.47;;;19.56;100.00
10097;BME280;5087;42.662;23.466;2022-09-17T08:24:29;94413.59;;;19.73;100.00
10097;BME280;5087;42.662;23.466;2022-09-17T08:26:56;94419.75;;;20.06;100.00
10097;BME280;5087;42.662;23.466;2022-09-17T08:29:24;94395.81;;;19.96;100.00
10097;BME280;5087;42.662;23.466;2022-09-17T08:31:53;94405.16;;;20.73;100.00
10097;BME280;5087;42.662;23.466;2022-09-17T08:34:20;94411.25;;;20.98;100.00
10097;BME280;5087;42.662;23.466;2022-09-17T08:36:48;94365.38;;;21.85;100.00
10097;BME280;5087;42.662;23.466;2022-09-17T08:39:15;94400.59;;;21.39;100.00
10097;BME280;5087;42.662;23.466;2022-09-17T08:41:51;94394.16;;;21.53;100.00
10097;BME280;5087;42.662;23.466;2022-09-17T08:44:26;94384.75;;;21.46;100.00
10097;BME280;5087;42.662;23.466;2022-09-17T08:47:00;94385.25;;;20.96;100.00
10097;BME280;5087;42.662;23.466;2022-09-17T08:49:35;94405.97;;;20.66;100.00
10097;BME280;5087;42.662;23.466;2022-09-17T08:52:27;94401.63;;;21.17;100.00
10097;BME280;5087;42.662;23.466;2022-09-17T08:55:04;94402.97;;;20.98;100.00
10097;BME280;5087;42.662;23.466;2022-09-17T08:57:42;94394.63;;;21.06;100.00
10097;BME280;5087;42.662;23.466;2022-09-17T09:00:15;94380.13;;;21.36;100.00
10097;BME280;5087;42.662;23.466;2022-09-17T09:02:58;94391.81;;;21.13;100.00
10097;BME280;5087;42.662;23.466;2022-09-17T09:05:36;94401.00;;;20.99;100.00
10097;BME280;5087;42.662;23.466;2022-09-17T09:08:12;94399.47;;;20.94;100.00
10097;BME280;5087;42.662;23.466;2022-09-17T09:10:46;94397.22;;;20.82;100.00
10097;BME280;5087;42.662;23.466;2022-09-17T09:13:18;94416.00;;;20.94;100.00
10097;BME280;5087;42.662;23.466;2022-09-17T09:15:52;94414.34;;;21.04;100.00
10097;BME280;5087;42.662;23.466;2022-09-17T09:18:25;94374.50;;;20.60;100.00
10097;BME280;5087;42.662;23.466;2022-09-17T09:20:58;94383.84;;;20.80;100.00
10097;BME280;5087;42.662;23.466;2022-09-17T09:23:34;94418.38;;;20.92;100.00
10097;BME280;5087;42.662;23.466;2022-09-17T09:26:15;94436.00;;;21.09;100.00
10097;BME280;5087;42.662;23.466;2022-09-17T09:29:04;94433.78;;;20.90;100.00
10097;BME280;5087;42.662;23.466;2022-09-17T09:31:45;94450.84;;;20.77;100.00
10097;BME280;5087;42.662;23.466;2022-09-17T09:34:16;94445.09;;;20.46;100.00
10097;BME280;5087;42.662;23.466;2022-09-17T09:36:43;94470.94;;;20.74;100.00
10097;BME280;5087;42.662;23.466;2022-09-17T09:39:16;94422.31;;;20.42;100.00
10097;BME280;5087;42.662;23.466;2022-09-17T09:41:47;94496.66;;;20.53;100.00
10097;BME280;5087;42.662;23.466;2022-09-17T09:44:19;94463.31;;;20.33;100.00
10097;BME280;5087;42.662;23.466;2022-09-17T09:47:00;94489.09;;;19.86;100.00
10097;BME280;5087;42.662;23.466;2022-09-17T09:49:45;94504.81;;;19.71;100.00
10097;BME280;5087;42.662;23.466;2022-09-17T09:52:31;94516.31;;;19.41;100.00
10097;BME280;5087;42.662;23.466;2022-09-17T09:55:12;94502.91;;;18.74;100.00
10097;BME280;5087;42.662;23.466;2022-09-17T09:57:44;94524.47;;;18.65;100.00
10097;BME280;5087;42.662;23.466;2022-09-17T10:00:31;94467.31;;;17.90;100.00
10097;BME280;5087;42.662;23.466;2022-09-17T10:03:08;94552.19;;;18.20;100.00
10097;BME280;5087;42.662;23.466;2022-09-17T10:05:53;94475.34;;;17.46;100.00
10097;BME280;5087;42.662;23.466;2022-09-17T10:08:20;94555.94;;;17.86;100.00
10097;BME280;5087;42.662;23.466;2022-09-17T10:10:59;94530.31;;;17.61;100.00
10097;BME280;5087;42.662;23.466;2022-09-17T10:13:29;94513.09;;;17.67;100.00
10097;BME280;5087;42.662;23.466;2022-09-17T10:15:56;94458.44;;;17.37;100.00
10097;BME280;5087;42.662;23.466;2022-09-17T10:18:43;94469.69;;;17.21;100.00
10097;BME280;5087;42.662;23.466;2022-09-17T10:21:21;94472.91;;;17.30;100.00
10097;BME280;5087;42.662;23.466;2022-09-17T10:23:49;94442.97;;;17.03;100.00
10097;BME280;5087;42.662;23.466;2022-09-17T10:26:21;94439.31;;;16.92;100.00
10097;BME280;5087;42.662;23.466;2022-09-17T10:28:52;94438.72;;;17.13;100.00
10097;BME280;5087;42.662;23.466;2022-09-17T10:31:23;94336.84;;;16.52;100.00
10097;BME280;5087;42.662;23.466;2022-09-17T10:34:01;94383.13;;;16.64;100.00
10097;BME280;5087;42.662;23.466;2022-09-17T10:36:46;94462.91;;;17.00;100.00
10097;BME280;5087;42.662;23.466;2022-09-17T10:39:32;94423.94;;;16.76;100.00
10097;BME280;5087;42.662;23.466;2022-09-17T10:42:03;94353.81;;;16.20;100.00
10097;BME280;5087;42.662;23.466;2022-09-17T10:44:33;94446.03;;;16.98;100.00
10097;BME280;5087;42.662;23.466;2022-09-17T10:49:39;94416.16;;;16.86;100.00
10097;BME280;5087;42.662;23.466;2022-09-17T10:52:22;94354.94;;;16.67;100.00
10097;BME280;5087;42.662;23.466;2022-09-17T10:55:21;94381.81;;;16.99;100.00
10097;BME280;5087;42.662;23.466;2022-09-17T10:58:03;94401.56;;;17.30;100.00
10097;BME280;5087;42.662;23.466;2022-09-17T11:00:46;94395.50;;;17.73;100.00
10097;BME280;5087;42.662;23.466;2022-09-17T11:07:32;94371.34;;;18.73;100.00
10097;BME280;5087;42.662;23.466;2022-09-17T11:10:12;94354.00;;;19.12;100.00
10097;BME280;5087;42.662;23.466;2022-09-17T11:13:29;94298.69;;;18.66;100.00
10097;BME280;5087;42.662;23.466;2022-09-17T11:16:13;94308.47;;;18.75;100.00
10097;BME280;5087;42.662;23.466;2022-09-17T11:18:47;94337.50;;;19.19;100.00
10097;BME280;5087;42.662;23.466;2022-09-17T11:21:36;94345.13;;;19.71;100.00
10097;BME280;5087;42.662;23.466;2022-09-17T11:24:33;94334.06;;;19.82;100.00
10097;BME280;5087;42.662;23.466;2022-09-17T11:27:19;94309.78;;;19.63;100.00
10097;BME280;5087;42.662;23.466;2022-09-17T11:30:14;94346.25;;;19.81;100.00
10097;BME280;5087;42.662;23.466;2022-09-17T11:35:49;94317.44;;;20.00;100.00
10097;BME280;5087;42.662;23.466;2022-09-17T11:38:25;94291.19;;;20.41;100.00
10097;BME280;5087;42.662;23.466;2022-09-17T11:40:59;94299.41;;;20.90;100.00
10097;BME280;5087;42.662;23.466;2022-09-17T11:43:31;94269.50;;;20.39;100.00
10097;BME280;5087;42.662;23.466;2022-09-17T11:46:06;94295.25;;;20.26;100.00
10097;BME280;5087;42.662;23.466;2022-09-17T11:48:38;94324.38;;;20.27;100.00
10097;BME280;5087;42.662;23.466;2022-09-17T11:51:23;94349.94;;;20.27;100.00
10097;BME280;5087;42.662;23.466;2022-09-17T11:53:55;94311.28;;;19.78;100.00
10097;BME280;5087;42.662;23.466;2022-09-17T11:56:29;94341.13;;;19.83;100.00
10097;BME280;5087;42.662;23.466;2022-09-17T11:59:02;94306.06;;;19.09;100.00
10097;BME280;5087;42.662;23.466;2022-09-17T12:01:35;94313.16;;;19.03;100.00
10097;BME280;5087;42.662;23.466;2022-09-17T12:07:01;94348.50;;;19.19;100.00
10097;BME280;5087;42.662;23.466;2022-09-17T12:09:35;94320.66;;;18.99;100.00
10097;BME280;5087;42.662;23.466;2022-09-17T12:12:09;94324.16;;;18.89;100.00
10097;BME280;5087;42.662;23.466;2022-09-17T12:14:46;94347.31;;;19.13;100.00
10097;BME280;5087;42.662;23.466;2022-09-17T12:17:25;94326.16;;;18.92;100.00
10097;BME280;5087;42.662;23.466;2022-09-17T12:19:58;94321.84;;;18.83;100.00
10097;BME280;5087;42.662;23.466;2022-09-17T12:22:30;94354.84;;;18.98;100.00
10097;BME280;5087;42.662;23.466;2022-09-17T12:25:00;94313.19;;;18.78;100.00
10097;BME280;5087;42.662;23.466;2022-09-17T12:27:35;94341.84;;;18.91;100.00
10097;BME280;5087;42.662;23.466;2022-09-17T12:30:08;94314.75;;;18.93;100.00
10097;BME280;5087;42.662;23.466;2022-09-17T12:36:17;94359.50;;;19.08;100.00
10097;BME280;5087;42.662;23.466;2022-09-17T12:39:01;94361.09;;;19.06;100.00
10097;BME280;5087;42.662;23.466;2022-09-17T12:41:41;94322.59;;;18.84;100.00
10097;BME280;5087;42.662;23.466;2022-09-17T12:44:31;94324.59;;;18.69;100.00
10097;BME280;5087;42.662;23.466;2022-09-17T12:47:24;94341.44;;;18.82;100.00
10097;BME280;5087;42.662;23.466;2022-09-17T12:50:18;94331.25;;;18.79;100.00
10097;BME280;5087;42.662;23.466;2022-09-17T12:53:01;94299.09;;;18.61;100.00
10097;BME280;5087;42.662;23.466;2022-09-17T12:55:43;94325.75;;;18.82;100.00
10097;BME280;5087;42.662;23.466;2022-09-17T12:58:25;94339.91;;;18.81;100.00
10097;BME280;5087;42.662;23.466;2022-09-17T13:01:01;94264.16;;;18.44;100.00
10097;BME280;5087;42.662;23.466;2022-09-17T13:03:31;94305.69;;;18.89;100.00
10097;BME280;5087;42.662;23.466;2022-09-17T13:06:19;94313.16;;;19.00;100.00
10097;BME280;5087;42.662;23.466;2022-09-17T13:09:25;94327.94;;;19.49;100.00
10097;BME280;5087;42.662;23.466;2022-09-17T13:12:16;94300.41;;;19.49;100.00
10097;BME280;5087;42.662;23.466;2022-09-17T13:15:32;94315.28;;;19.63;100.00
10097;BME280;5087;42.662;23.466;2022-09-17T13:18:10;94301.34;;;20.48;100.00
10097;BME280;5087;42.662;23.466;2022-09-17T13:20:53;94295.31;;;20.64;100.00
10097;BME280;5087;42.662;23.466;2022-09-17T13:23:31;94311.09;;;20.60;100.00
10097;BME280;5087;42.662;23.466;2022-09-17T13:25:58;94279.88;;;20.74;100.00
10097;BME280;5087;42.662;23.466;2022-09-17T13:28:44;94277.31;;;20.94;100.00
10097;BME280;5087;42.662;23.466;2022-09-17T13:31:12;94274.53;;;20.94;100.00
10097;BME280;5087;42.662;23.466;2022-09-17T13:33:54;94249.84;;;20.83;100.00
10097;BME280;5087;42.662;23.466;2022-09-17T13:36:39;94249.19;;;20.22;100.00
10097;BME280;5087;42.662;23.466;2022-09-17T13:39:09;94223.72;;;20.11;100.00
10097;BME280;5087;42.662;23.466;2022-09-17T13:41:39;94243.00;;;20.56;100.00